sensor_id;sensor_type;location;lat;lon;timestamp;P1;durP1;ratioP1;P2;durP2;ratioP2
67344;SDS011;54230;52.402;6.276;2022-08-19T00:00:00;10.5;;;6.8;;
67344;SDS011;54230;52.402;6.276;2022-08-19T00:05:00;10.8;;;7.2;;
67344;SDS011;54230;52.402;6.276;2022-08-19T00:10:00;9.8;;;7.2;;
67344;SDS011;54230;52.402;6.276;2022-08-19T00:15:00;11.1;;;7.4;;
67344;SDS011;54230;52.402;6.276;2022-08-19T00:20:00;10.9;;;7.0;;
67344;SDS011;54230;52.402;6.276;2022-08-19T00:25:00;12.0;;;7.5;;
67344;SDS011;54230;52.402;6.276;2022-08-19T00:30:00;14.2;;;7.5;;
67344;SDS011;54230;52.402;6.276;2022-08-19T00:35:00;11.5;;;7.5;;
67344;SDS011;54230;52.402;6.276;2022-08-19T00:40:00;11.7;;;7.7;;
67344;SDS011;54230;52.402;6.276;2022-08-19T00:45:00;11.2;;;7.4;;
67344;SDS011;54230;52.402;6.276;2022-08-19T00:50:00;11.6;;;7.7;;
67344;SDS011;54230;52.402;6.276;2022-08-19T00:55:00;13.7;;;8.7;;
67344;SDS011;54230;52.402;6.276;2022-08-19T01:00:00;12.5;;;8.1;;
67344;SDS011;54230;52.402;6.276;2022-08-19T01:05:00;11.9;;;8.5;;
67344;SDS011;54230;52.402;6.276;2022-08-19T01:10:00;12.1;;;8.5;;
67344;SDS011;54230;52.402;6.276;2022-08-19T01:15:00;12.9;;;8.0;;
67344;SDS011;54230;52.402;6.276;2022-08-19T01:20:00;11.0;;;7.8;;
67344;SDS011;54230;52.402;6.276;2022-08-19T01:25:00;10.9;;;7.8;;
67344;SDS011;54230;52.402;6.276;2022-08-19T01:30:00;12.4;;;8.0;;
67344;SDS011;54230;52.402;6.276;2022-08-19T01:35:00;12.5;;;8.4;;
67344;SDS011;54230;52.402;6.276;2022-08-19T01:40:00;12.2;;;8.3;;
67344;SDS011;54230;52.402;6.276;2022-08-19T01:45:00;12.3;;;8.3;;
67344;SDS011;54230;52.402;6.276;2022-08-19T01:50:00;12.3;;;8.3;;
67344;SDS011;54230;52.402;6.276;2022-08-19T01:55:00;11.6;;;8.0;;
67344;SDS011;54230;52.402;6.276;2022-08-19T02:00:00;12.5;;;7.7;;
67344;SDS011;54230;52.402;6.276;2022-08-19T02:05:00;13.7;;;8.2;;
67344;SDS011;54230;52.402;6.276;2022-08-19T02:10:00;11.7;;;8.2;;
67344;SDS011;54230;52.402;6.276;2022-08-19T02:15:00;13.1;;;8.3;;
67344;SDS011;54230;52.402;6.276;2022-08-19T02:20:00;11.4;;;7.7;;
67344;SDS011;54230;52.402;6.276;2022-08-19T02:25:00;10.2;;;6.9;;
67344;SDS011;54230;52.402;6.276;2022-08-19T02:30:00;14.0;;;8.2;;
67344;SDS011;54230;52.402;6.276;2022-08-19T02:35:00;13.9;;;8.7;;
67344;SDS011;54230;52.402;6.276;2022-08-19T02:40:00;12.1;;;8.3;;
67344;SDS011;54230;52.402;6.276;2022-08-19T02:45:00;12.8;;;7.9;;
67344;SDS011;54230;52.402;6.276;2022-08-19T02:50:00;13.3;;;8.3;;
67344;SDS011;54230;52.402;6.276;2022-08-19T02:55:00;13.5;;;8.5;;
67344;SDS011;54230;52.402;6.276;2022-08-19T03:00:00;12.4;;;8.1;;
67344;SDS011;54230;52.402;6.276;2022-08-19T03:05:00;13.3;;;7.9;;
67344;SDS011;54230;52.402;6.276;2022-08-19T03:10:00;11.7;;;7.3;;
67344;SDS011;54230;52.402;6.276;2022-08-19T03:15:00;11.3;;;7.6;;
67344;SDS011;54230;52.402;6.276;2022-08-19T03:20:00;10.7;;;7.0;;
67344;SDS011;54230;52.402;6.276;2022-08-19T03:25:00;10.4;;;7.3;;
67344;SDS011;54230;52.402;6.276;2022-08-19T03:30:00;12.2;;;8.0;;
67344;SDS011;54230;52.402;6.276;2022-08-19T03:35:00;13.1;;;7.7;;
67344;SDS011;54230;52.402;6.276;2022-08-19T03:40:00;14.6;;;8.7;;
67344;SDS011;54230;52.402;6.276;2022-08-19T03:45:00;14.1;;;8.6;;
67344;SDS011;54230;52.402;6.276;2022-08-19T03:50:00;13.4;;;8.3;;
67344;SDS011;54230;52.402;6.276;2022-08-19T03:55:00;14.4;;;8.9;;
67344;SDS011;54230;52.402;6.276;2022-08-19T04:00:00;15.1;;;9.1;;
67344;SDS011;54230;52.402;6.276;2022-08-19T04:05:00;16.5;;;10.1;;
67344;SDS011;54230;52.402;6.276;2022-08-19T04:10:00;14.3;;;9.5;;
67344;SDS011;54230;52.402;6.276;2022-08-19T04:15:00;15.2;;;9.9;;
67344;SDS011;54230;52.402;6.276;2022-08-19T04:20:00;16.3;;;10.5;;
67344;SDS011;54230;52.402;6.276;2022-08-19T04:25:00;18.1;;;10.1;;
67344;SDS011;54230;52.402;6.276;2022-08-19T04:30:00;16.3;;;10.4;;
67344;SDS011;54230;52.402;6.276;2022-08-19T04:35:00;17.0;;;10.5;;
67344;SDS011;54230;52.402;6.276;2022-08-19T04:40:00;15.1;;;9.5;;
67344;SDS011;54230;52.402;6.276;2022-08-19T04:45:00;16.3;;;11.1;;
67344;SDS011;54230;52.402;6.276;2022-08-19T04:50:00;15.4;;;10.1;;
67344;SDS011;54230;52.402;6.276;2022-08-19T04:55:00;16.7;;;10.5;;
67344;SDS011;54230;52.402;6.276;2022-08-19T05:00:00;17.1;;;11.0;;
67344;SDS011;54230;52.402;6.276;2022-08-19T05:05:00;17.2;;;10.9;;
67344;SDS011;54230;52.402;6.276;2022-08-19T05:10:00;14.5;;;9.6;;
67344;SDS011;54230;52.402;6.276;2022-08-19T05:15:00;15.2;;;10.0;;
67344;SDS011;54230;52.402;6.276;2022-08-19T05:20:00;17.9;;;11.5;;
67344;SDS011;54230;52.402;6.276;2022-08-19T05:25:01;18.9;;;12.4;;
67344;SDS011;54230;52.402;6.276;2022-08-19T05:30:00;11.4;;;7.4;;
67344;SDS011;54230;52.402;6.276;2022-08-19T05:35:00;9.5;;;6.6;;
67344;SDS011;54230;52.402;6.276;2022-08-19T05:40:00;10.7;;;7.2;;
67344;SDS011;54230;52.402;6.276;2022-08-19T05:45:00;11.8;;;7.5;;
67344;SDS011;54230;52.402;6.276;2022-08-19T05:50:00;12.1;;;7.6;;
67344;SDS011;54230;52.402;6.276;2022-08-19T05:55:00;12.5;;;8.3;;
67344;SDS011;54230;52.402;6.276;2022-08-19T06:00:00;16.1;;;10.9;;
67344;SDS011;54230;52.402;6.276;2022-08-19T06:05:00;23.5;;;14.2;;
67344;SDS011;54230;52.402;6.276;2022-08-19T06:10:00;23.1;;;15.1;;
67344;SDS011;54230;52.402;6.276;2022-08-19T06:15:00;23.6;;;15.0;;
67344;SDS011;54230;52.402;6.276;2022-08-19T06:20:00;25.8;;;15.2;;
67344;SDS011;54230;52.402;6.276;2022-08-19T06:25:00;23.8;;;15.1;;
67344;SDS011;54230;52.402;6.276;2022-08-19T06:30:00;26.9;;;16.0;;
67344;SDS011;54230;52.402;6.276;2022-08-19T06:35:00;25.0;;;14.6;;
67344;SDS011;54230;52.402;6.276;2022-08-19T06:40:00;24.6;;;15.5;;
67344;SDS011;54230;52.402;6.276;2022-08-19T06:45:00;24.3;;;15.5;;
67344;SDS011;54230;52.402;6.276;2022-08-19T06:50:00;24.1;;;15.0;;
67344;SDS011;54230;52.402;6.276;2022-08-19T06:55:00;25.4;;;16.1;;
67344;SDS011;54230;52.402;6.276;2022-08-19T07:00:00;24.4;;;15.4;;
67344;SDS011;54230;52.402;6.276;2022-08-19T07:05:00;23.2;;;15.2;;
67344;SDS011;54230;52.402;6.276;2022-08-19T07:10:00;24.7;;;15.8;;
67344;SDS011;54230;52.402;6.276;2022-08-19T07:15:00;23.2;;;15.6;;
67344;SDS011;54230;52.402;6.276;2022-08-19T07:20:00;24.0;;;15.4;;
67344;SDS011;54230;52.402;6.276;2022-08-19T07:25:00;21.9;;;14.9;;
67344;SDS011;54230;52.402;6.276;2022-08-19T07:30:00;24.1;;;15.4;;
67344;SDS011;54230;52.402;6.276;2022-08-19T07:35:00;23.8;;;14.8;;
67344;SDS011;54230;52.402;6.276;2022-08-19T07:40:00;24.3;;;15.6;;
67344;SDS011;54230;52.402;6.276;2022-08-19T07:45:00;25.4;;;16.0;;
67344;SDS011;54230;52.402;6.276;2022-08-19T07:50:00;24.5;;;16.6;;
67344;SDS011;54230;52.402;6.276;2022-08-19T07:55:00;28.1;;;18.2;;
67344;SDS011;54230;52.402;6.276;2022-08-19T08:00:00;31.7;;;19.7;;
67344;SDS011;54230;52.402;6.276;2022-08-19T08:05:00;32.2;;;19.7;;
67344;SDS011;54230;52.402;6.276;2022-08-19T08:10:00;33.0;;;20.2;;
67344;SDS011;54230;52.402;6.276;2022-08-19T08:15:00;28.8;;;19.3;;
67344;SDS011;54230;52.402;6.276;2022-08-19T08:20:00;29.3;;;18.5;;
67344;SDS011;54230;52.402;6.276;2022-08-19T08:25:01;28.8;;;19.2;;
67344;SDS011;54230;52.402;6.276;2022-08-19T08:30:00;28.7;;;18.1;;
67344;SDS011;54230;52.402;6.276;2022-08-19T08:35:00;25.0;;;16.6;;
67344;SDS011;54230;52.402;6.276;2022-08-19T08:40:02;28.8;;;17.4;;
67344;SDS011;54230;52.402;6.276;2022-08-19T08:45:00;26.0;;;16.3;;
67344;SDS011;54230;52.402;6.276;2022-08-19T08:50:01;29.0;;;18.2;;
67344;SDS011;54230;52.402;6.276;2022-08-19T08:55:00;25.6;;;16.9;;
67344;SDS011;54230;52.402;6.276;2022-08-19T09:00:00;23.8;;;15.8;;
67344;SDS011;54230;52.402;6.276;2022-08-19T09:05:00;20.8;;;14.2;;
67344;SDS011;54230;52.402;6.276;2022-08-19T09:10:02;20.0;;;12.1;;
67344;SDS011;54230;52.402;6.276;2022-08-19T09:15:01;21.5;;;13.5;;
67344;SDS011;54230;52.402;6.276;2022-08-19T09:20:00;21.5;;;13.9;;
67344;SDS011;54230;52.402;6.276;2022-08-19T09:25:00;22.3;;;13.6;;
67344;SDS011;54230;52.402;6.276;2022-08-19T09:30:00;20.1;;;13.5;;
67344;SDS011;54230;52.402;6.276;2022-08-19T09:35:00;22.5;;;15.4;;
67344;SDS011;54230;52.402;6.276;2022-08-19T09:40:00;22.8;;;15.3;;
67344;SDS011;54230;52.402;6.276;2022-08-19T09:45:00;23.6;;;14.8;;
67344;SDS011;54230;52.402;6.276;2022-08-19T09:50:00;24.2;;;15.9;;
67344;SDS011;54230;52.402;6.276;2022-08-19T09:55:00;25.3;;;15.4;;
67344;SDS011;54230;52.402;6.276;2022-08-19T10:00:00;26.1;;;17.6;;
67344;SDS011;54230;52.402;6.276;2022-08-19T10:05:00;26.2;;;17.0;;
67344;SDS011;54230;52.402;6.276;2022-08-19T10:10:00;23.1;;;15.3;;
67344;SDS011;54230;52.402;6.276;2022-08-19T10:15:00;23.2;;;14.7;;
67344;SDS011;54230;52.402;6.276;2022-08-19T10:20:00;26.2;;;16.8;;
67344;SDS011;54230;52.402;6.276;2022-08-19T10:25:00;23.2;;;14.9;;
67344;SDS011;54230;52.402;6.276;2022-08-19T10:30:00;25.7;;;16.8;;
67344;SDS011;54230;52.402;6.276;2022-08-19T10:35:00;24.5;;;15.9;;
67344;SDS011;54230;52.402;6.276;2022-08-19T10:40:00;24.8;;;15.6;;
67344;SDS011;54230;52.402;6.276;2022-08-19T10:45:00;25.0;;;17.2;;
67344;SDS011;54230;52.402;6.276;2022-08-19T10:50:00;26.0;;;17.4;;
67344;SDS011;54230;52.402;6.276;2022-08-19T10:55:00;28.0;;;18.9;;
67344;SDS011;54230;52.402;6.276;2022-08-19T11:00:00;28.3;;;17.6;;
67344;SDS011;54230;52.402;6.276;2022-08-19T11:05:00;27.2;;;18.0;;
67344;SDS011;54230;52.402;6.276;2022-08-19T11:10:00;26.1;;;17.6;;
67344;SDS011;54230;52.402;6.276;2022-08-19T11:15:00;24.0;;;15.1;;
67344;SDS011;54230;52.402;6.276;2022-08-19T11:20:00;19.8;;;13.1;;
67344;SDS011;54230;52.402;6.276;2022-08-19T11:25:00;17.3;;;11.0;;
67344;SDS011;54230;52.402;6.276;2022-08-19T11:30:00;17.3;;;11.4;;
67344;SDS011;54230;52.402;6.276;2022-08-19T11:35:00;16.7;;;11.5;;
67344;SDS011;54230;52.402;6.276;2022-08-19T11:40:00;16.6;;;11.9;;
67344;SDS011;54230;52.402;6.276;2022-08-19T11:45:00;15.2;;;10.7;;
67344;SDS011;54230;52.402;6.276;2022-08-19T11:50:00;13.9;;;10.0;;
67344;SDS011;54230;52.402;6.276;2022-08-19T11:55:00;12.6;;;9.2;;
67344;SDS011;54230;52.402;6.276;2022-08-19T12:00:00;15.4;;;9.3;;
67344;SDS011;54230;52.402;6.276;2022-08-19T12:05:00;13.8;;;9.5;;
67344;SDS011;54230;52.402;6.276;2022-08-19T12:10:00;14.4;;;10.0;;
67344;SDS011;54230;52.402;6.276;2022-08-19T12:15:00;18.5;;;11.5;;
67344;SDS011;54230;52.402;6.276;2022-08-19T12:20:00;15.9;;;11.0;;
67344;SDS011;54230;52.402;6.276;2022-08-19T12:25:00;17.3;;;11.3;;
67344;SDS011;54230;52.402;6.276;2022-08-19T12:30:00;14.9;;;9.8;;
67344;SDS011;54230;52.402;6.276;2022-08-19T12:35:00;14.5;;;9.5;;
67344;SDS011;54230;52.402;6.276;2022-08-19T12:40:00;14.2;;;9.8;;
67344;SDS011;54230;52.402;6.276;2022-08-19T12:45:00;17.0;;;11.6;;
67344;SDS011;54230;52.402;6.276;2022-08-19T12:50:00;21.4;;;14.7;;
67344;SDS011;54230;52.402;6.276;2022-08-19T12:55:00;22.9;;;15.0;;
67344;SDS011;54230;52.402;6.276;2022-08-19T13:00:01;18.7;;;13.6;;
67344;SDS011;54230;52.402;6.276;2022-08-19T13:05:00;19.9;;;13.4;;
67344;SDS011;54230;52.402;6.276;2022-08-19T13:10:00;18.4;;;12.3;;
67344;SDS011;54230;52.402;6.276;2022-08-19T13:15:00;19.1;;;11.9;;
67344;SDS011;54230;52.402;6.276;2022-08-19T13:20:00;15.2;;;10.4;;
67344;SDS011;54230;52.402;6.276;2022-08-19T13:25:00;13.1;;;9.2;;
67344;SDS011;54230;52.402;6.276;2022-08-19T13:30:00;14.1;;;9.6;;
67344;SDS011;54230;52.402;6.276;2022-08-19T13:35:00;14.8;;;9.5;;
67344;SDS011;54230;52.402;6.276;2022-08-19T13:40:00;13.3;;;9.5;;
67344;SDS011;54230;52.402;6.276;2022-08-19T13:45:00;11.9;;;8.1;;
67344;SDS011;54230;52.402;6.276;2022-08-19T13:50:00;10.9;;;7.5;;
67344;SDS011;54230;52.402;6.276;2022-08-19T13:55:00;11.8;;;7.9;;
67344;SDS011;54230;52.402;6.276;2022-08-19T14:00:00;13.1;;;9.0;;
67344;SDS011;54230;52.402;6.276;2022-08-19T14:05:00;12.4;;;8.1;;
67344;SDS011;54230;52.402;6.276;2022-08-19T14:10:00;12.8;;;8.5;;
67344;SDS011;54230;52.402;6.276;2022-08-19T14:15:00;12.5;;;8.5;;
67344;SDS011;54230;52.402;6.276;2022-08-19T14:20:00;11.8;;;8.2;;
67344;SDS011;54230;52.402;6.276;2022-08-19T14:25:00;11.9;;;8.3;;
67344;SDS011;54230;52.402;6.276;2022-08-19T14:30:00;16.1;;;10.3;;
67344;SDS011;54230;52.402;6.276;2022-08-19T14:35:00;18.6;;;11.0;;
67344;SDS011;54230;52.402;6.276;2022-08-19T14:40:00;19.3;;;13.0;;
67344;SDS011;54230;52.402;6.276;2022-08-19T14:45:00;20.5;;;12.6;;
67344;SDS011;54230;52.402;6.276;2022-08-19T14:50:00;24.5;;;14.5;;
67344;SDS011;54230;52.402;6.276;2022-08-19T14:55:00;22.5;;;13.4;;
67344;SDS011;54230;52.402;6.276;2022-08-19T15:00:00;23.4;;;13.1;;
67344;SDS011;54230;52.402;6.276;2022-08-19T15:05:00;21.9;;;13.6;;
67344;SDS011;54230;52.402;6.276;2022-08-19T15:10:00;21.5;;;13.4;;
67344;SDS011;54230;52.402;6.276;2022-08-19T15:15:00;23.4;;;13.1;;
67344;SDS011;54230;52.402;6.276;2022-08-19T15:20:00;16.4;;;12.3;;
67344;SDS011;54230;52.402;6.276;2022-08-19T15:25:00;18.7;;;11.9;;
67344;SDS011;54230;52.402;6.276;2022-08-19T15:30:00;18.4;;;10.6;;
67344;SDS011;54230;52.402;6.276;2022-08-19T15:35:00;17.7;;;12.2;;
67344;SDS011;54230;52.402;6.276;2022-08-19T15:40:00;21.6;;;12.2;;
67344;SDS011;54230;52.402;6.276;2022-08-19T15:45:00;19.3;;;11.6;;
67344;SDS011;54230;52.402;6.276;2022-08-19T15:50:00;19.2;;;11.5;;
67344;SDS011;54230;52.402;6.276;2022-08-19T15:55:00;17.7;;;12.4;;
67344;SDS011;54230;52.402;6.276;2022-08-19T16:00:00;16.2;;;10.4;;
67344;SDS011;54230;52.402;6.276;2022-08-19T16:05:00;15.8;;;10.4;;
67344;SDS011;54230;52.402;6.276;2022-08-19T16:10:00;16.5;;;10.7;;
67344;SDS011;54230;52.402;6.276;2022-08-19T16:15:00;13.8;;;9.2;;
67344;SDS011;54230;52.402;6.276;2022-08-19T16:20:00;10.3;;;6.8;;
67344;SDS011;54230;52.402;6.276;2022-08-19T16:25:00;11.5;;;6.8;;
67344;SDS011;54230;52.402;6.276;2022-08-19T16:30:00;9.9;;;6.7;;
67344;SDS011;54230;52.402;6.276;2022-08-19T16:35:02;11.8;;;7.3;;
67344;SDS011;54230;52.402;6.276;2022-08-19T16:40:00;12.6;;;7.5;;
67344;SDS011;54230;52.402;6.276;2022-08-19T16:45:00;12.4;;;8.2;;
67344;SDS011;54230;52.402;6.276;2022-08-19T16:50:00;11.9;;;7.1;;
67344;SDS011;54230;52.402;6.276;2022-08-19T16:55:00;12.1;;;7.8;;
67344;SDS011;54230;52.402;6.276;2022-08-19T17:00:00;14.2;;;8.4;;
67344;SDS011;54230;52.402;6.276;2022-08-19T17:05:00;12.6;;;8.1;;
67344;SDS011;54230;52.402;6.276;2022-08-19T17:10:00;13.3;;;9.0;;
67344;SDS011;54230;52.402;6.276;2022-08-19T17:15:00;14.2;;;9.1;;
67344;SDS011;54230;52.402;6.276;2022-08-19T17:20:00;14.3;;;10.2;;
67344;SDS011;54230;52.402;6.276;2022-08-19T17:25:00;13.2;;;8.7;;
67344;SDS011;54230;52.402;6.276;2022-08-19T17:30:00;13.6;;;9.5;;
67344;SDS011;54230;52.402;6.276;2022-08-19T17:35:00;15.0;;;10.7;;
67344;SDS011;54230;52.402;6.276;2022-08-19T17:40:00;14.3;;;10.6;;
67344;SDS011;54230;52.402;6.276;2022-08-19T17:45:00;16.1;;;10.8;;
67344;SDS011;54230;52.402;6.276;2022-08-19T17:50:00;17.6;;;11.4;;
67344;SDS011;54230;52.402;6.276;2022-08-19T17:55:00;17.7;;;11.9;;
67344;SDS011;54230;52.402;6.276;2022-08-19T18:00:00;16.0;;;12.3;;
67344;SDS011;54230;52.402;6.276;2022-08-19T18:05:02;18.7;;;12.5;;
67344;SDS011;54230;52.402;6.276;2022-08-19T18:10:00;19.4;;;13.1;;
67344;SDS011;54230;52.402;6.276;2022-08-19T18:15:00;19.5;;;13.7;;
67344;SDS011;54230;52.402;6.276;2022-08-19T18:25:00;16.9;;;12.5;;
67344;SDS011;54230;52.402;6.276;2022-08-19T18:30:00;15.6;;;11.5;;
67344;SDS011;54230;52.402;6.276;2022-08-19T18:35:01;17.0;;;10.4;;
67344;SDS011;54230;52.402;6.276;2022-08-19T18:40:00;14.1;;;9.5;;
67344;SDS011;54230;52.402;6.276;2022-08-19T18:45:00;15.0;;;8.3;;
67344;SDS011;54230;52.402;6.276;2022-08-19T18:50:00;13.5;;;7.1;;
67344;SDS011;54230;52.402;6.276;2022-08-19T18:55:00;8.2;;;4.3;;
67344;SDS011;54230;52.402;6.276;2022-08-19T19:00:00;6.9;;;4.4;;
67344;SDS011;54230;52.402;6.276;2022-08-19T19:05:00;9.0;;;4.7;;
67344;SDS011;54230;52.402;6.276;2022-08-19T19:10:00;6.7;;;4.0;;
67344;SDS011;54230;52.402;6.276;2022-08-19T19:15:00;5.7;;;3.4;;
67344;SDS011;54230;52.402;6.276;2022-08-19T19:20:00;4.8;;;2.8;;
67344;SDS011;54230;52.402;6.276;2022-08-19T19:25:00;5.2;;;3.1;;
67344;SDS011;54230;52.402;6.276;2022-08-19T19:30:00;9.7;;;5.7;;
67344;SDS011;54230;52.402;6.276;2022-08-19T19:35:00;4.4;;;3.0;;
67344;SDS011;54230;52.402;6.276;2022-08-19T19:40:00;3.5;;;2.4;;
67344;SDS011;54230;52.402;6.276;2022-08-19T19:45:00;4.2;;;2.5;;
67344;SDS011;54230;52.402;6.276;2022-08-19T19:50:00;5.1;;;2.4;;
67344;SDS011;54230;52.402;6.276;2022-08-19T19:55:00;3.8;;;2.2;;
67344;SDS011;54230;52.402;6.276;2022-08-19T20:00:00;4.4;;;2.3;;
67344;SDS011;54230;52.402;6.276;2022-08-19T20:05:00;4.0;;;2.3;;
67344;SDS011;54230;52.402;6.276;2022-08-19T20:10:01;4.5;;;2.8;;
67344;SDS011;54230;52.402;6.276;2022-08-19T20:15:00;4.1;;;2.7;;
67344;SDS011;54230;52.402;6.276;2022-08-19T20:20:00;3.6;;;2.4;;
67344;SDS011;54230;52.402;6.276;2022-08-19T20:25:00;4.1;;;2.5;;
67344;SDS011;54230;52.402;6.276;2022-08-19T20:30:00;3.8;;;2.6;;
67344;SDS011;54230;52.402;6.276;2022-08-19T20:35:00;4.5;;;2.7;;
67344;SDS011;54230;52.402;6.276;2022-08-19T20:40:00;6.6;;;3.2;;
67344;SDS011;54230;52.402;6.276;2022-08-19T20:45:00;6.9;;;3.1;;
67344;SDS011;54230;52.402;6.276;2022-08-19T20:50:00;6.2;;;3.8;;
67344;SDS011;54230;52.402;6.276;2022-08-19T20:55:00;10.4;;;4.2;;
67344;SDS011;54230;52.402;6.276;2022-08-19T21:00:00;9.4;;;4.8;;
67344;SDS011;54230;52.402;6.276;2022-08-19T21:05:00;8.8;;;5.0;;
67344;SDS011;54230;52.402;6.276;2022-08-19T21:10:00;8.7;;;5.3;;
67344;SDS011;54230;52.402;6.276;2022-08-19T21:15:00;7.5;;;4.8;;
67344;SDS011;54230;52.402;6.276;2022-08-19T21:20:00;10.9;;;5.2;;
67344;SDS011;54230;52.402;6.276;2022-08-19T21:25:00;13.8;;;7.4;;
67344;SDS011;54230;52.402;6.276;2022-08-19T21:30:00;9.2;;;5.7;;
67344;SDS011;54230;52.402;6.276;2022-08-19T21:35:00;9.3;;;5.8;;
67344;SDS011;54230;52.402;6.276;2022-08-19T21:40:00;7.9;;;5.7;;
67344;SDS011;54230;52.402;6.276;2022-08-19T21:45:00;8.6;;;5.5;;
67344;SDS011;54230;52.402;6.276;2022-08-19T21:50:00;10.2;;;5.8;;
67344;SDS011;54230;52.402;6.276;2022-08-19T21:55:00;10.1;;;5.9;;
67344;SDS011;54230;52.402;6.276;2022-08-19T22:00:00;10.2;;;6.1;;
67344;SDS011;54230;52.402;6.276;2022-08-19T22:05:00;9.6;;;6.5;;
67344;SDS011;54230;52.402;6.276;2022-08-19T22:10:00;9.2;;;6.0;;
67344;SDS011;54230;52.402;6.276;2022-08-19T22:15:00;9.9;;;6.2;;
67344;SDS011;54230;52.402;6.276;2022-08-19T22:20:00;10.8;;;6.3;;
67344;SDS011;54230;52.402;6.276;2022-08-19T22:25:00;12.1;;;6.1;;
67344;SDS011;54230;52.402;6.276;2022-08-19T22:30:00;10.4;;;6.4;;
67344;SDS011;54230;52.402;6.276;2022-08-19T22:35:00;12.2;;;7.1;;
67344;SDS011;54230;52.402;6.276;2022-08-19T22:40:00;18.8;;;10.1;;
67344;SDS011;54230;52.402;6.276;2022-08-19T22:45:00;16.9;;;10.0;;
67344;SDS011;54230;52.402;6.276;2022-08-19T22:50:00;12.0;;;7.8;;
67344;SDS011;54230;52.402;6.276;2022-08-19T22:55:00;12.5;;;7.7;;
67344;SDS011;54230;52.402;6.276;2022-08-19T23:00:00;12.5;;;7.4;;
67344;SDS011;54230;52.402;6.276;2022-08-19T23:05:00;14.1;;;7.8;;
67344;SDS011;54230;52.402;6.276;2022-08-19T23:10:00;12.5;;;7.8;;
67344;SDS011;54230;52.402;6.276;2022-08-19T23:15:00;14.4;;;8.2;;
67344;SDS011;54230;52.402;6.276;2022-08-19T23:20:00;13.5;;;7.6;;
67344;SDS011;54230;52.402;6.276;2022-08-19T23:25:00;14.9;;;7.8;;
67344;SDS011;54230;52.402;6.276;2022-08-19T23:30:00;13.0;;;7.6;;
67344;SDS011;54230;52.402;6.276;2022-08-19T23:35:00;13.4;;;7.7;;
67344;SDS011;54230;52.402;6.276;2022-08-19T23:40:00;14.4;;;7.1;;
67344;SDS011;54230;52.402;6.276;2022-08-19T23:45:00;12.8;;;7.2;;
67344;SDS011;54230;52.402;6.276;2022-08-19T23:50:00;15.1;;;8.0;;
67344;SDS011;54230;52.402;6.276;2022-08-19T23:55:00;14.2;;;7.2;;
